Time;durP1;ratioP1;P1;durP2;ratioP2;P2;SDS_P1;SDS_P2;PMS_P1;PMS_P2;Temp;Humidity;BMP_temperature;BMP_pressure;BME280_temperature;BME280_humidity;BME280_pressure;Samples;Min_cycle;Max_cycle;Signal;HPM_P1;HPM_P2
2021/03/10 00:02:20;;;;;;;0.40;0.40;;;;;;;-1.97;72.52;101384.19;5056295;28;20472;-65
2021/03/10 00:04:46;;;;;;;0.70;0.70;;;;;;;-1.92;71.44;101389.72;5056438;28;20844;-65
2021/03/10 00:07:12;;;;;;;0.40;0.30;;;;;;;-1.96;71.83;101396.44;5056110;28;20858;-65
2021/03/10 00:09:38;;;;;;;0.40;0.30;;;;;;;-2.11;72.72;101385.16;5055949;28;20462;-65
2021/03/10 00:12:05;;;;;;;0.60;0.60;;;;;;;-2.16;73.74;101390.25;5056353;28;20477;-66
2021/03/10 00:14:31;;;;;;;0.40;0.30;;;;;;;-2.20;72.98;101391.66;5056368;28;20446;-66
2021/03/10 00:16:59;;;;;;;1.03;0.50;;;;;;;-2.25;73.53;101396.75;5056345;28;20438;-66
2021/03/10 00:19:25;;;;;;;0.40;0.30;;;;;;;-2.30;74.08;101395.50;5055764;28;20476;-65
2021/03/10 00:21:51;;;;;;;0.40;0.30;;;;;;;-2.28;73.60;101400.59;5056170;28;20442;-65
2021/03/10 00:24:17;;;;;;;0.40;0.30;;;;;;;-2.41;74.06;101401.31;5056151;28;20452;-65
2021/03/10 00:26:44;;;;;;;0.40;0.30;;;;;;;-2.43;73.91;101398.06;5056072;28;20535;-65
2021/03/10 00:29:10;;;;;;;0.60;0.60;;;;;;;-2.41;74.20;101401.31;5055821;28;20481;-66
2021/03/10 00:31:37;;;;;;;0.40;0.40;;;;;;;-2.49;74.38;101404.13;5056089;28;20226;-65
2021/03/10 00:34:03;;;;;;;0.50;0.50;;;;;;;-2.41;74.52;101400.50;5055431;28;20442;-66
2021/03/10 00:36:29;;;;;;;0.40;0.40;;;;;;;-2.35;75.23;101399.72;5055721;28;20625;-66
2021/03/10 00:38:55;;;;;;;0.90;0.90;;;;;;;-2.31;76.41;101398.31;5055634;28;20450;-67
2021/03/10 00:41:21;;;;;;;0.40;0.30;;;;;;;-2.28;75.08;101406.72;5053914;28;20959;-65
2021/03/10 00:43:47;;;;;;;1.57;1.27;;;;;;;-2.23;73.48;101400.00;5055467;28;20446;-66
2021/03/10 00:46:12;;;;;;;0.40;0.30;;;;;;;-2.30;73.82;101398.13;5055440;28;20481;-66
2021/03/10 00:48:39;;;;;;;0.50;0.50;;;;;;;-2.45;74.22;101394.78;5055328;28;20866;-66
2021/03/10 00:51:05;;;;;;;0.40;0.30;;;;;;;-2.45;74.27;101393.97;5055625;28;20462;-67
2021/03/10 00:53:31;;;;;;;0.40;0.30;;;;;;;-2.50;74.66;101386.59;5055474;28;20442;-67
2021/03/10 00:55:57;;;;;;;1.73;1.63;;;;;;;-2.55;74.93;101386.34;5055509;28;20437;-66
2021/03/10 00:58:23;;;;;;;0.40;0.40;;;;;;;-2.62;75.49;101377.53;5055505;28;20450;-66
2021/03/10 01:00:49;;;;;;;0.40;0.30;;;;;;;-2.58;74.73;101379.59;5055390;28;20701;-67
2021/03/10 01:03:15;;;;;;;0.40;0.40;;;;;;;-2.58;74.92;101378.78;5055442;28;20446;-66
2021/03/10 01:05:43;;;;;;;0.40;0.30;;;;;;;-2.54;74.46;101382.69;5055108;28;20438;-67
2021/03/10 01:08:09;;;;;;;0.40;0.40;;;;;;;-2.59;74.41;101374.50;5055236;28;20499;-67
2021/03/10 01:10:35;;;;;;;0.40;0.30;;;;;;;-2.62;74.75;101377.53;5054998;28;20462;-66
2021/03/10 01:13:01;;;;;;;0.40;0.40;;;;;;;-2.72;75.38;101371.75;5055136;28;20439;-66
2021/03/10 01:15:27;;;;;;;0.40;0.30;;;;;;;-2.66;75.16;101378.94;5055004;28;20441;-66
2021/03/10 01:17:53;;;;;;;0.50;0.30;;;;;;;-2.76;75.51;101373.97;5055097;28;20441;-66
2021/03/10 01:20:21;;;;;;;1.90;1.80;;;;;;;-2.76;75.92;101381.09;5054815;28;20474;-66
2021/03/10 01:22:47;;;;;;;0.40;0.30;;;;;;;-2.71;75.15;101373.38;5054856;28;20526;-66
2021/03/10 01:25:14;;;;;;;0.40;0.40;;;;;;;-2.81;75.75;101371.91;5054837;28;20442;-66
2021/03/10 01:27:41;;;;;;;0.50;0.50;;;;;;;-2.85;76.14;101373.28;5054750;28;20485;-65
2021/03/10 01:30:09;;;;;;;0.40;0.30;;;;;;;-2.83;76.49;101373.13;5054622;28;20485;-66
2021/03/10 01:32:35;;;;;;;0.40;0.40;;;;;;;-2.83;76.98;101373.94;5054440;28;20984;-66
2021/03/10 01:35:02;;;;;;;0.40;0.30;;;;;;;-2.70;76.40;101375.03;5054630;28;20438;-66
2021/03/10 01:37:28;;;;;;;0.40;0.40;;;;;;;-2.69;76.94;101382.00;5054624;28;20434;-67
2021/03/10 01:39:55;;;;;;;1.17;1.07;;;;;;;-2.69;77.35;101372.19;5054141;28;20481;-65
2021/03/10 01:42:21;;;;;;;0.40;0.37;;;;;;;-2.75;77.88;101372.94;5054573;28;20442;-66
2021/03/10 01:44:47;;;;;;;0.40;0.30;;;;;;;-2.82;78.54;101372.91;5055511;28;20447;-66
2021/03/10 01:47:15;;;;;;;1.13;0.80;;;;;;;-2.76;78.77;101375.81;5055682;28;20532;-65
2021/03/10 01:49:41;;;;;;;0.40;0.30;;;;;;;-2.78;78.82;101372.53;5054409;28;20458;-65
2021/03/10 01:52:08;;;;;;;0.40;0.30;;;;;;;-2.88;79.00;101372.84;5053872;28;20969;-65
2021/03/10 01:54:34;;;;;;;0.50;0.50;;;;;;;-2.91;79.39;101367.97;5053970;28;20442;-65
2021/03/10 01:57:01;;;;;;;0.40;0.30;;;;;;;-2.94;80.00;101368.34;5053945;28;20616;-65
2021/03/10 01:59:27;;;;;;;0.57;0.57;;;;;;;-2.85;80.12;101373.28;5054088;28;20466;-66
2021/03/10 02:01:53;;;;;;;0.40;0.30;;;;;;;-2.76;77.98;101381.09;5054177;28;20204;-66
2021/03/10 02:04:19;;;;;;;2.67;1.27;;;;;;;-2.91;77.21;101376.72;5053834;28;20437;-66
2021/03/10 02:06:57;;;;;;;0.40;0.30;;;;;;;-2.92;77.03;101383.06;5053567;28;20830;-66
2021/03/10 02:09:29;;;;;;;0.40;0.30;;;;;;;-2.95;76.45;101379.97;5053969;28;20473;-66
2021/03/10 02:12:04;;;;;;;0.40;0.30;;;;;;;-3.02;76.80;101377.25;5054072;28;20481;-66
2021/03/10 02:14:38;;;;;;;0.40;0.30;;;;;;;-3.00;76.42;101374.41;5053899;28;20426;-66
2021/03/10 02:17:08;;;;;;;0.50;0.50;;;;;;;-3.02;76.55;101371.13;5053795;28;20184;-64
2021/03/10 02:20:07;;;;;;;0.40;0.30;;;;;;;-3.13;77.18;101370.66;5053595;28;20462;-66
2021/03/10 02:22:46;;;;;;;0.40;0.30;;;;;;;-3.17;76.69;101372.03;5053681;28;20431;-66
2021/03/10 02:25:17;;;;;;;2.63;1.63;;;;;;;-3.12;77.20;101374.09;5053734;28;20828;-66
2021/03/10 02:27:46;;;;;;;0.50;0.50;;;;;;;-3.18;76.84;101373.06;5053626;28;20524;-66
2021/03/10 02:30:16;;;;;;;0.63;0.45;;;;;;;-3.20;78.05;101368.94;5053621;28;20664;-66
2021/03/10 02:32:47;;;;;;;0.40;0.40;;;;;;;-3.22;77.64;101377.09;5053767;28;20212;-66
2021/03/10 02:35:13;;;;;;;0.40;0.40;;;;;;;-3.27;77.79;101374.19;5053832;28;20191;-66
2021/03/10 02:37:45;;;;;;;0.40;0.30;;;;;;;-3.34;77.69;101368.00;5071865;28;20462;-66
2021/03/10 02:40:13;;;;;;;1.03;1.03;;;;;;;-3.37;78.19;101371.84;5073035;28;20715;-66
2021/03/10 02:42:40;;;;;;;0.40;0.40;;;;;;;-3.36;78.59;101370.03;5073425;28;20808;-66
2021/03/10 02:45:08;;;;;;;0.40;0.40;;;;;;;-3.33;78.17;101374.94;5073307;28;20476;-67
2021/03/10 02:47:35;;;;;;;0.40;0.30;;;;;;;-3.36;77.84;101372.69;5073190;28;20863;-66
2021/03/10 02:50:01;;;;;;;1.05;1.00;;;;;;;-3.39;77.72;101367.75;5072975;28;20461;-67
2021/03/10 02:52:28;;;;;;;1.03;1.03;;;;;;;-3.44;78.11;101370.16;5073280;28;20210;-66
2021/03/10 02:54:54;;;;;;;1.30;0.85;;;;;;;-3.44;79.53;101370.97;5073327;28;20451;-66
2021/03/10 02:57:21;;;;;;;0.40;0.30;;;;;;;-3.33;79.84;101365.16;5073290;28;20319;-66
2021/03/10 02:59:47;;;;;;;0.40;0.30;;;;;;;-3.21;80.01;101368.13;5072860;28;20460;-66
2021/03/10 03:02:14;;;;;;;0.60;0.60;;;;;;;-3.21;78.25;101372.59;5073120;28;20472;-66
2021/03/10 03:04:40;;;;;;;0.40;0.30;;;;;;;-3.31;78.78;101368.44;5072360;28;20434;-66
2021/03/10 03:07:06;;;;;;;0.40;0.30;;;;;;;-3.39;78.40;101370.41;5073035;28;20493;-66
2021/03/10 03:09:34;;;;;;;0.50;0.40;;;;;;;-3.36;78.64;101377.97;5072985;28;20454;-67
2021/03/10 03:12:01;;;;;;;0.40;0.30;;;;;;;-3.40;78.44;101369.59;5073021;28;20443;-66
2021/03/10 03:14:29;;;;;;;0.40;0.40;;;;;;;-3.41;78.07;101373.25;5073025;28;20195;-66
2021/03/10 03:16:55;;;;;;;0.40;0.30;;;;;;;-3.43;78.46;101377.09;5073050;28;20206;-66
2021/03/10 03:19:22;;;;;;;1.03;0.90;;;;;;;-3.48;78.38;101374.19;5073015;28;20600;-67
2021/03/10 03:21:49;;;;;;;0.40;0.40;;;;;;;-3.31;77.87;101378.22;5072975;28;20449;-67
2021/03/10 03:24:19;;;;;;;0.40;0.30;;;;;;;-3.21;76.62;101369.97;5072980;28;20809;-67
2021/03/10 03:26:45;;;;;;;0.40;0.40;;;;;;;-3.35;76.73;101375.13;5073175;28;20227;-67
2021/03/10 03:29:13;;;;;;;0.63;0.60;;;;;;;-3.53;77.38;101369.47;5072865;28;20475;-66
2021/03/10 03:31:40;;;;;;;0.40;0.40;;;;;;;-3.56;77.59;101375.13;5072552;28;20938;-67
2021/03/10 03:34:07;;;;;;;0.40;0.30;;;;;;;-3.60;78.04;101372.03;5072542;28;20950;-66
2021/03/10 03:36:36;;;;;;;0.60;0.53;;;;;;;-3.61;78.63;101373.03;5072491;28;20197;-66
2021/03/10 03:39:05;;;;;;;0.40;0.30;;;;;;;-3.59;78.25;101370.19;5072495;28;20460;-67
2021/03/10 03:41:32;;;;;;;0.70;0.70;;;;;;;-3.58;77.59;101377.16;5072481;28;20643;-67
2021/03/10 03:43:59;;;;;;;0.40;0.30;;;;;;;-3.62;77.85;101370.59;5072768;28;20445;-66
2021/03/10 03:46:25;;;;;;;0.40;0.30;;;;;;;-3.61;77.63;101372.22;5072351;28;21065;-66
2021/03/10 03:48:51;;;;;;;0.40;0.30;;;;;;;-3.52;78.10;101381.69;5072361;28;20680;-66
2021/03/10 03:51:24;;;;;;;0.40;0.40;;;;;;;-3.50;78.92;101378.84;5072391;28;20206;-66
2021/03/10 03:53:59;;;;;;;0.50;0.47;;;;;;;-3.43;78.43;101375.25;5072639;28;20414;-66
2021/03/10 03:56:25;;;;;;;0.40;0.30;;;;;;;-3.54;79.25;101373.13;5072559;28;20444;-66
2021/03/10 03:58:51;;;;;;;0.40;0.30;;;;;;;-3.52;79.90;101371.09;5072597;28;20207;-66
2021/03/10 04:01:17;;;;;;;0.90;0.90;;;;;;;-3.56;79.47;101369.84;5072585;28;20464;-66
2021/03/10 04:03:44;;;;;;;0.40;0.40;;;;;;;-3.61;81.09;101372.22;5072555;28;20441;-66
2021/03/10 04:06:10;;;;;;;0.50;0.50;;;;;;;-3.58;80.95;101371.88;5072438;28;20249;-66
2021/03/10 04:08:36;;;;;;;0.40;0.30;;;;;;;-3.59;81.58;101371.03;5072537;28;20444;-66
2021/03/10 04:11:03;;;;;;;0.40;0.30;;;;;;;-3.60;81.71;101376.50;5072428;28;20219;-66
2021/03/10 04:13:29;;;;;;;0.40;0.40;;;;;;;-3.59;82.31;101380.78;5073500;28;20448;-66
2021/03/10 04:15:55;;;;;;;0.70;0.63;;;;;;;-3.54;81.39;101378.44;5074791;28;20453;-64
2021/03/10 04:18:21;;;;;;;0.40;0.40;;;;;;;-3.49;81.03;101391.09;5076177;28;20451;-65
2021/03/10 04:20:47;;;;;;;0.40;0.30;;;;;;;-3.60;79.62;101379.16;5076048;28;21033;-66
2021/03/10 04:23:13;;;;;;;1.23;1.13;;;;;;;-3.67;79.26;101381.75;5076007;28;20445;-65
2021/03/10 04:25:39;;;;;;;0.85;0.85;;;;;;;-3.61;78.25;101373.03;5076040;28;20462;-65
2021/03/10 04:28:06;;;;;;;1.37;1.30;;;;;;;-3.70;78.65;101378.66;5075890;28;20692;-66
2021/03/10 04:30:32;;;;;;;0.43;0.43;;;;;;;-3.85;78.33;101376.88;5075912;28;20463;-65
2021/03/10 04:32:58;;;;;;;0.40;0.30;;;;;;;-3.84;78.62;101370.56;5077216;28;20453;-65
2021/03/10 04:35:25;;;;;;;0.40;0.30;;;;;;;-3.92;79.10;101368.03;5075798;28;20215;-66
2021/03/10 04:37:51;;;;;;;0.40;0.38;;;;;;;-3.99;79.03;101377.69;5075807;28;20437;-68
2021/03/10 04:40:18;;;;;;;0.40;0.40;;;;;;;-3.92;78.55;101375.16;5075634;28;20230;-67
2021/03/10 04:42:44;;;;;;;0.40;0.30;;;;;;;-3.97;79.30;101388.13;5075718;28;20203;-65
2021/03/10 04:45:12;;;;;;;0.40;0.30;;;;;;;-3.86;78.97;101384.97;5075639;28;20585;-65
2021/03/10 04:47:38;;;;;;;0.43;0.40;;;;;;;-3.95;79.24;101392.19;5075457;28;20485;-66
2021/03/10 04:50:06;;;;;;;0.40;0.40;;;;;;;-3.95;79.04;101386.09;5075160;28;20495;-66
2021/03/10 04:52:32;;;;;;;0.40;0.40;;;;;;;-3.91;78.93;101396.13;5075667;28;20452;-66
2021/03/10 04:54:58;;;;;;;0.40;0.30;;;;;;;-4.03;79.57;101400.25;5075663;28;20449;-66
2021/03/10 04:57:24;;;;;;;0.40;0.30;;;;;;;-4.02;79.37;101395.78;5075453;28;20491;-66
2021/03/10 04:59:50;;;;;;;1.13;1.00;;;;;;;-4.10;80.38;101394.06;5075465;28;20853;-67
2021/03/10 05:02:17;;;;;;;0.40;0.30;;;;;;;-4.17;80.10;101398.44;5075466;28;20789;-66
2021/03/10 05:04:43;;;;;;;0.40;0.40;;;;;;;-4.04;79.90;101409.19;5075284;28;20460;-66
2021/03/10 05:07:09;;;;;;;0.40;0.30;;;;;;;-4.02;79.38;101401.91;5075256;28;20711;-67
2021/03/10 05:09:35;;;;;;;0.83;0.83;;;;;;;-4.04;79.34;101406.53;5075238;28;20504;-67
2021/03/10 05:12:01;;;;;;;0.60;0.60;;;;;;;-4.13;79.32;101415.59;5075208;28;20918;-66
2021/03/10 05:14:27;;;;;;;2.10;1.90;;;;;;;-4.12;80.80;101411.94;5075106;28;20443;-67
2021/03/10 05:16:52;;;;;;;3.90;2.20;;;;;;;-4.13;82.77;101412.94;5075033;28;20501;-67
2021/03/10 05:19:19;;;;;;;0.80;0.80;;;;;;;-4.10;82.66;101417.88;5075043;28;20519;-68
2021/03/10 05:21:45;;;;;;;0.40;0.30;;;;;;;-4.12;81.84;101420.72;5074980;28;20441;-67
2021/03/10 05:24:11;;;;;;;0.40;0.40;;;;;;;-4.16;81.38;101413.28;5074972;28;20203;-67
2021/03/10 05:26:37;;;;;;;0.50;0.47;;;;;;;-4.20;81.06;101412.06;5074805;28;20852;-67
2021/03/10 05:29:03;;;;;;;0.80;0.80;;;;;;;-4.16;81.09;101413.28;5073938;28;20453;-66
2021/03/10 05:31:29;;;;;;;1.17;1.00;;;;;;;-4.11;80.73;101418.88;5074799;28;20450;-66
2021/03/10 05:33:55;;;;;;;0.60;0.60;;;;;;;-4.20;80.36;101414.69;5074700;28;20448;-66
2021/03/10 05:36:23;;;;;;;2.70;2.60;;;;;;;-4.24;81.41;101414.22;5074714;28;20433;-67
2021/03/10 05:38:49;;;;;;;1.37;0.83;;;;;;;-4.25;81.09;101414.41;5074656;28;20441;-66
2021/03/10 05:41:15;;;;;;;0.80;0.57;;;;;;;-4.22;80.09;101416.69;5074184;28;20473;-67
2021/03/10 05:43:42;;;;;;;0.80;0.75;;;;;;;-4.15;80.31;101425.53;5074611;28;20469;-67
2021/03/10 05:46:08;;;;;;;0.40;0.30;;;;;;;-4.20;80.00;101425.28;5074403;28;20268;-66
2021/03/10 05:48:35;;;;;;;0.40;0.30;;;;;;;-4.18;80.33;101428.53;5074134;28;20618;-66
2021/03/10 05:51:02;;;;;;;1.13;1.02;;;;;;;-4.30;81.88;101422.88;5074085;28;20475;-67
2021/03/10 05:53:29;;;;;;;0.40;0.40;;;;;;;-4.35;82.21;101423.44;5074325;28;20203;-66
2021/03/10 05:55:59;;;;;;;2.00;1.90;;;;;;;-4.25;81.76;101415.25;5074304;28;20195;-66
2021/03/10 05:58:25;;;;;;;0.65;0.65;;;;;;;-4.21;80.37;101423.59;5074323;28;20183;-68
2021/03/10 06:00:51;;;;;;;0.40;0.30;;;;;;;-4.24;81.35;101430.09;5073921;28;20258;-68
2021/03/10 06:03:17;;;;;;;1.50;1.40;;;;;;;-4.24;80.86;101430.09;5074114;28;20448;-67
2021/03/10 06:05:44;;;;;;;0.50;0.47;;;;;;;-4.20;81.66;101427.91;5074011;28;20203;-66
2021/03/10 06:08:14;;;;;;;2.50;2.40;;;;;;;-4.23;81.64;101431.75;5073686;28;20677;-66
2021/03/10 06:10:43;;;;;;;0.40;0.38;;;;;;;-4.12;81.29;101427.78;5073901;28;20552;-66
2021/03/10 06:13:20;;;;;;;2.67;1.13;;;;;;;-4.14;80.96;101420.06;5073571;28;20668;-66
2021/03/10 06:15:46;;;;;;;0.40;0.30;;;;;;;-3.97;80.79;101431.28;5073522;28;20675;-66
2021/03/10 06:18:22;;;;;;;1.67;1.58;;;;;;;-3.77;79.54;101431.50;5073807;28;20434;-66
2021/03/10 06:20:48;;;;;;;3.13;1.25;;;;;;;-3.61;79.17;101425.19;5073700;28;20258;-66
2021/03/10 06:23:15;;;;;;;0.40;0.30;;;;;;;-3.67;80.74;101424.09;5073428;28;20203;-66
2021/03/10 06:25:42;;;;;;;0.40;0.30;;;;;;;-3.70;82.45;101423.66;5073466;28;20714;-66
2021/03/10 06:28:08;;;;;;;1.23;0.52;;;;;;;-3.58;81.92;101427.47;5073612;28;20229;-66
2021/03/10 06:30:37;;;;;;;0.40;0.40;;;;;;;-3.48;81.56;101420.03;5073366;28;20223;-66
2021/03/10 06:33:04;;;;;;;0.40;0.37;;;;;;;-3.21;80.71;101420.28;5073688;28;20199;-66
2021/03/10 06:35:32;;;;;;;0.40;0.40;;;;;;;-3.03;80.52;101427.78;5073647;28;20445;-66
2021/03/10 06:38:09;;;;;;;0.50;0.47;;;;;;;-2.97;80.64;101425.19;5073714;28;20207;-66
2021/03/10 06:40:35;;;;;;;0.47;0.47;;;;;;;-2.93;81.03;101422.97;5073140;28;20534;-67
2021/03/10 06:43:01;;;;;;;0.70;0.70;;;;;;;-2.94;81.98;101431.94;5074386;28;20865;-66
2021/03/10 06:45:32;;;;;;;0.40;0.30;;;;;;;-2.91;82.55;101437.69;5074004;28;20491;-67
2021/03/10 06:47:59;;;;;;;0.40;0.40;;;;;;;-2.75;82.16;101446.38;5073508;28;20251;-66
2021/03/10 06:50:35;;;;;;;0.40;0.40;;;;;;;-2.65;81.04;101446.88;5073543;28;20219;-67
2021/03/10 06:53:01;;;;;;;1.23;0.68;;;;;;;-2.69;80.47;101446.44;5073063;28;20524;-67
2021/03/10 06:55:37;;;;;;;0.40;0.40;;;;;;;-2.61;80.41;101448.13;5072765;28;20236;-66
2021/03/10 06:58:04;;;;;;;0.90;0.90;;;;;;;-2.55;80.21;101455.31;5073368;28;20179;-67
2021/03/10 07:00:31;;;;;;;0.53;0.50;;;;;;;-2.46;80.29;101461.28;5073356;28;20461;-67
2021/03/10 07:02:58;;;;;;;0.50;0.47;;;;;;;-2.37;79.60;101465.44;5073465;28;20437;-68
2021/03/10 07:05:24;;;;;;;1.43;1.33;;;;;;;-2.29;79.95;101458.13;5073413;28;20448;-67
2021/03/10 07:07:52;;;;;;;1.33;1.23;;;;;;;-2.18;79.55;101458.59;5072951;28;21029;-67
2021/03/10 07:10:18;;;;;;;0.40;0.30;;;;;;;-2.14;79.95;101459.84;5073251;28;20874;-67
2021/03/10 07:12:44;;;;;;;0.40;0.40;;;;;;;-2.09;79.67;101455.59;5073197;28;20445;-67
2021/03/10 07:15:13;;;;;;;0.40;0.30;;;;;;;-1.94;79.12;101463.44;5073309;28;20438;-67
2021/03/10 07:17:39;;;;;;;3.33;1.30;;;;;;;-1.86;79.20;101473.91;5073271;28;20455;-67
2021/03/10 07:20:06;;;;;;;0.40;0.37;;;;;;;-1.79;78.56;101476.56;5073042;28;20457;-66
2021/03/10 07:22:36;;;;;;;0.40;0.30;;;;;;;-1.58;77.78;101468.50;5073184;28;20442;-67
2021/03/10 07:25:06;;;;;;;0.40;0.30;;;;;;;-1.41;77.78;101468.97;5072931;28;20954;-66
2021/03/10 07:27:38;;;;;;;0.60;0.60;;;;;;;-1.27;76.75;101475.94;5072992;28;20485;-66
2021/03/10 07:30:05;;;;;;;0.53;0.50;;;;;;;-1.10;75.99;101481.72;5072938;28;20500;-66
2021/03/10 07:32:32;;;;;;;0.70;0.50;;;;;;;-1.00;74.49;101483.97;5073010;28;20466;-66
2021/03/10 07:35:04;;;;;;;0.90;0.90;;;;;;;-0.90;74.12;101492.38;5072657;28;20445;-66
2021/03/10 07:37:30;;;;;;;0.40;0.40;;;;;;;-0.78;73.61;101492.59;5072911;28;20935;-66
2021/03/10 07:40:11;;;;;;;0.60;0.57;;;;;;;-0.61;73.07;101498.34;5072598;28;20484;-66
2021/03/10 07:42:49;;;;;;;0.40;0.30;;;;;;;-0.49;72.52;101495.88;5072965;28;20429;-66
2021/03/10 07:45:15;;;;;;;0.40;0.40;;;;;;;-0.34;71.35;101499.97;5073038;28;20449;-66
2021/03/10 07:47:50;;;;;;;0.90;0.60;;;;;;;-0.17;70.91;101496.91;5072726;28;20481;-65
2021/03/10 07:50:16;;;;;;;0.40;0.30;;;;;;;-0.02;70.07;101492.13;5072961;28;20503;-67
2021/03/10 07:52:49;;;;;;;0.90;0.90;;;;;;;0.13;69.37;101494.56;5076258;28;20449;-69
2021/03/10 07:55:15;;;;;;;7.50;1.47;;;;;;;0.30;68.67;101486.91;5076557;28;20426;-68
2021/03/10 07:57:49;;;;;;;0.87;0.87;;;;;;;0.39;67.61;101488.31;5076793;28;20438;-67
2021/03/10 08:00:16;;;;;;;0.90;0.90;;;;;;;0.50;66.76;101501.00;5076395;28;20464;-66
2021/03/10 08:02:44;;;;;;;0.40;0.30;;;;;;;0.59;66.71;101497.06;5076657;28;20449;-66
2021/03/10 08:05:21;;;;;;;0.57;0.57;;;;;;;0.69;65.74;101499.25;5076600;28;20534;-67
2021/03/10 08:07:47;;;;;;;1.77;1.67;;;;;;;0.74;65.99;101505.59;5076532;28;20905;-65
2021/03/10 08:10:24;;;;;;;1.17;0.70;;;;;;;0.88;65.16;101503.66;5076537;28;20461;-65
2021/03/10 08:12:50;;;;;;;0.70;0.70;;;;;;;1.03;64.66;101511.38;5076517;28;20512;-66
2021/03/10 08:15:20;;;;;;;2.00;1.37;;;;;;;1.17;63.98;101501.44;5076481;28;20455;-66
2021/03/10 08:17:47;;;;;;;0.53;0.53;;;;;;;1.32;63.49;101495.78;5076570;28;20432;-66
2021/03/10 08:20:14;;;;;;;0.80;0.80;;;;;;;1.51;62.43;101508.19;5076186;28;20518;-66
2021/03/10 08:22:41;;;;;;;0.40;0.30;;;;;;;1.68;61.73;101501.25;5076014;28;20516;-66
2021/03/10 08:25:12;;;;;;;0.50;0.50;;;;;;;1.80;61.27;101505.88;5076095;28;20445;-66
2021/03/10 08:27:39;;;;;;;1.03;0.93;;;;;;;1.90;60.73;101503.50;5076196;28;20464;-65
2021/03/10 08:30:08;;;;;;;0.53;0.53;;;;;;;2.03;59.96;101500.69;5076130;28;20460;-66
2021/03/10 08:32:34;;;;;;;0.70;0.70;;;;;;;2.14;59.08;101491.97;5075555;28;20503;-66
2021/03/10 08:35:08;;;;;;;1.83;1.53;;;;;;;2.28;58.48;101489.94;5076137;28;20456;-66
2021/03/10 08:37:34;;;;;;;0.93;0.80;;;;;;;2.45;56.69;101495.50;5075899;28;20819;-66
2021/03/10 08:40:01;;;;;;;0.50;0.40;;;;;;;2.61;56.22;101491.38;5075590;28;20896;-66
2021/03/10 08:42:27;;;;;;;0.57;0.57;;;;;;;2.74;55.32;101478.66;5075664;28;20447;-66
2021/03/10 08:44:54;;;;;;;0.47;0.40;;;;;;;2.86;54.75;101472.53;5075969;28;20429;-66
2021/03/10 08:47:22;;;;;;;1.23;1.13;;;;;;;2.97;54.59;101475.25;5075742;28;20484;-65
2021/03/10 08:49:52;;;;;;;1.20;1.10;;;;;;;3.07;53.15;101477.38;5075678;28;20876;-66
2021/03/10 08:52:18;;;;;;;0.70;0.60;;;;;;;3.17;52.80;101485.66;5075360;28;20463;-66
2021/03/10 08:54:49;;;;;;;1.87;1.77;;;;;;;3.33;53.06;101484.19;5075588;28;20474;-65
2021/03/10 08:57:16;;;;;;;0.93;0.73;;;;;;;3.42;52.50;101487.34;5075685;28;20499;-68
2021/03/10 08:59:42;;;;;;;3.33;1.23;;;;;;;3.51;51.87;101486.78;5075557;28;20472;-69
2021/03/10 09:02:09;;;;;;;0.90;0.87;;;;;;;3.63;51.56;101484.09;5074408;28;20448;-68
2021/03/10 09:04:35;;;;;;;0.40;0.40;;;;;;;3.76;51.47;101489.25;5075284;28;20507;-67
2021/03/10 09:07:02;;;;;;;0.40;0.30;;;;;;;3.86;49.74;101494.00;5075042;28;20539;-67
2021/03/10 09:09:32;;;;;;;2.10;1.53;;;;;;;3.98;49.91;101491.31;5075290;28;20838;-68
2021/03/10 09:11:59;;;;;;;0.40;0.30;;;;;;;4.11;49.57;101501.78;5076277;28;20868;-67
2021/03/10 09:14:26;;;;;;;0.60;0.50;;;;;;;4.18;49.09;101494.44;5075107;28;20992;-65
2021/03/10 09:16:56;;;;;;;0.40;0.40;;;;;;;4.38;48.17;101490.53;5075242;28;20437;-67
2021/03/10 09:19:30;;;;;;;0.50;0.43;;;;;;;4.48;47.73;101486.22;5075108;28;20492;-67
2021/03/10 09:22:09;;;;;;;0.40;0.33;;;;;;;4.58;47.10;101490.94;5075168;28;20441;-67
2021/03/10 09:24:55;;;;;;;1.40;0.97;;;;;;;4.73;47.26;101495.78;5075124;28;20425;-67
2021/03/10 09:27:26;;;;;;;0.87;0.57;;;;;;;4.92;47.20;101496.44;5075066;28;20473;-67
2021/03/10 09:29:55;;;;;;;0.90;0.60;;;;;;;5.00;47.22;101486.13;5074883;28;20467;-67
2021/03/10 09:32:21;;;;;;;0.87;0.80;;;;;;;5.10;46.54;101488.16;5074608;28;20437;-66
2021/03/10 09:34:48;;;;;;;0.50;0.40;;;;;;;5.29;43.86;101491.44;5074899;28;20441;-68
2021/03/10 09:37:15;;;;;;;0.50;0.40;;;;;;;5.44;43.11;101490.84;5074913;28;20437;-67
2021/03/10 09:39:45;;;;;;;0.40;0.30;;;;;;;5.62;42.08;101492.47;5074512;28;20481;-67
2021/03/10 09:42:11;;;;;;;4.67;0.90;;;;;;;5.86;41.05;101499.31;5074786;28;20457;-67
2021/03/10 09:44:42;;;;;;;0.53;0.50;;;;;;;5.99;40.83;101490.13;5074747;28;20441;-68
2021/03/10 09:47:17;;;;;;;0.80;0.47;;;;;;;6.10;40.66;101496.44;5074595;28;20492;-66
2021/03/10 09:49:48;;;;;;;0.40;0.30;;;;;;;6.03;41.49;101491.25;5074664;28;20471;-67
2021/03/10 09:52:14;;;;;;;0.40;0.30;;;;;;;6.08;41.13;101488.63;5074788;28;20449;-68
2021/03/10 09:54:55;;;;;;;0.47;0.40;;;;;;;6.19;41.33;101495.75;5074281;28;20966;-67
2021/03/10 09:57:27;;;;;;;0.80;0.73;;;;;;;6.10;39.84;101496.44;5074156;28;20444;-67
2021/03/10 09:59:53;;;;;;;0.47;0.37;;;;;;;6.27;40.54;101489.13;5074406;28;20469;-67
2021/03/10 10:02:20;;;;;;;0.50;0.47;;;;;;;6.50;40.29;101478.09;5074391;28;20452;-68
2021/03/10 10:04:56;;;;;;;0.50;0.43;;;;;;;6.77;38.13;101480.84;5074464;28;20433;-67
2021/03/10 10:07:23;;;;;;;4.40;3.13;;;;;;;6.97;38.50;101479.44;5073980;28;20505;-68
2021/03/10 10:09:49;;;;;;;0.40;0.37;;;;;;;7.11;38.41;101480.63;5073939;28;20984;-66
2021/03/10 10:12:15;;;;;;;6.80;1.37;;;;;;;7.18;38.91;101486.63;5073988;28;20499;-67
2021/03/10 10:14:41;;;;;;;1.30;0.73;;;;;;;7.28;38.14;101491.28;5073485;28;20442;-68
2021/03/10 10:17:07;;;;;;;0.60;0.50;;;;;;;7.35;38.04;101483.81;5073756;28;20433;-68
2021/03/10 10:19:33;;;;;;;0.80;0.80;;;;;;;7.37;37.79;101483.56;5074007;28;20548;-68
2021/03/10 10:21:59;;;;;;;0.50;0.47;;;;;;;7.34;36.21;101485.69;5074083;28;20442;-68
2021/03/10 10:24:25;;;;;;;1.33;1.10;;;;;;;7.37;37.02;101480.84;5073613;28;20816;-68
2021/03/10 10:26:51;;;;;;;1.63;1.40;;;;;;;7.49;37.19;101484.19;5073817;28;20517;-67
2021/03/10 10:29:17;;;;;;;0.70;0.50;;;;;;;7.67;36.18;101482.97;5073784;28;20811;-68
2021/03/10 10:31:43;;;;;;;2.37;0.83;;;;;;;7.80;36.46;101488.72;5075228;28;20461;-67
2021/03/10 10:34:09;;;;;;;0.97;0.83;;;;;;;7.95;36.33;101492.59;5073770;28;20491;-68
2021/03/10 10:36:36;;;;;;;0.63;0.60;;;;;;;8.07;35.80;101487.81;5073676;28;20514;-68
2021/03/10 10:39:03;;;;;;;0.90;0.40;;;;;;;8.09;34.60;101488.34;5073447;28;20498;-68
2021/03/10 10:41:29;;;;;;;0.50;0.50;;;;;;;8.15;34.80;101479.22;5073385;28;20915;-68
2021/03/10 10:43:54;;;;;;;0.77;0.50;;;;;;;8.18;35.16;101488.66;5073690;28;20463;-68
2021/03/10 10:46:20;;;;;;;1.50;0.80;;;;;;;8.18;35.41;101475.16;5073500;28;20441;-68
2021/03/10 10:48:46;;;;;;;3.57;0.80;;;;;;;8.28;34.94;101473.34;5073542;28;20481;-68
2021/03/10 10:51:12;;;;;;;0.80;0.80;;;;;;;8.47;34.75;101470.19;5073418;28;20457;-67
2021/03/10 10:53:39;;;;;;;0.60;0.50;;;;;;;8.69;34.37;101473.50;5073208;28;20442;-68
2021/03/10 10:56:05;;;;;;;0.50;0.40;;;;;;;8.80;33.38;101474.31;5073151;28;20449;-68
2021/03/10 10:58:31;;;;;;;0.70;0.50;;;;;;;8.87;33.46;101472.19;5073408;28;20452;-68
2021/03/10 11:00:57;;;;;;;2.20;0.60;;;;;;;9.02;33.08;101476.78;5073346;28;20469;-68
2021/03/10 11:03:25;;;;;;;0.83;0.50;;;;;;;9.10;33.57;101470.88;5073328;28;20855;-68
2021/03/10 11:05:51;;;;;;;1.37;1.27;;;;;;;9.18;32.75;101473.03;5073345;28;20449;-68
2021/03/10 11:08:17;;;;;;;0.60;0.50;;;;;;;9.26;33.85;101467.09;5073127;28;20477;-68
2021/03/10 11:10:44;;;;;;;3.90;2.00;;;;;;;9.03;33.86;101471.13;5073086;28;20950;-67
2021/03/10 11:13:09;;;;;;;1.13;1.03;;;;;;;9.21;33.66;101453.59;5073190;28;20445;-67
2021/03/10 11:15:35;;;;;;;0.40;0.30;;;;;;;9.31;32.84;101458.97;5072932;28;20957;-68
2021/03/10 11:18:01;;;;;;;0.50;0.50;;;;;;;9.48;32.93;101450.59;5073160;28;20523;-68
2021/03/10 11:20:27;;;;;;;0.60;0.60;;;;;;;9.62;32.70;101458.97;5073105;28;20461;-68
2021/03/10 11:22:53;;;;;;;0.50;0.47;;;;;;;9.68;32.39;101457.03;5073154;28;21000;-68
2021/03/10 11:25:19;;;;;;;0.70;0.70;;;;;;;9.73;32.55;101463.25;5072109;28;20502;-68
2021/03/10 11:27:46;;;;;;;0.50;0.50;;;;;;;9.92;32.32;101458.09;5073016;28;20482;-68
2021/03/10 11:30:13;;;;;;;2.10;0.70;;;;;;;9.97;32.06;101446.44;5072945;28;20497;-68